Главная страница
METAR-TAF:

METAR-TAF

Аэропорты :

Fort Liard, Северо-Западные Территории, Канада

широта: 60-14N, долгота: 123-29W, высота над уровнем моря: 215 м

Текущие метеонаблюдения

Эта сводка был подготовлена 14 часа и 16 минут назад, в 22:00 UTC
Ветер 6 Узел от западный-юго-западный с порывами до 16 Узел, изменяющийся между южный-юго-западный и западно-северо-западный
Температура 27°C
Влажность 34%
Давление 1013 hPa
Видимость: 24.1 км
небольшая облачность на высоте 16000 фута
Рассеянная облачность на высоте 24000 фута

METAR: CYJF 182200Z 25006G16KT 210V290 15SM FEW160 BKN240 27/10 A2992 RMK AC1CI6 29.5/12.5/0/0 LAST STFD OBS/NEXT 191400UTC SLP134 DENSITY ALT 2300FT

Время: 06:16 (12:16 UTC)


TAF: отсутствует

Метеонаблюдения и прогнозы для более 4000 аэропортов (сводки METAR и TAF).

Имеющиеся станции представлены на карте желтыми и красными точками.

Чтобы увидеть название станции, наведите на нее мышь.

Затем щелкните, чтобы увидеть метеонаблюдения и метеопрогнозы.

Управление картой: чтобы увеличить масштаб, щелкните зеленые кнопки с черным крестиком; чтобы уменьшить масштаб, щелкните зеленую кнопку с тире; для просмотра соседних карт щелкайте зеленые стрелки.


METAR-TAF: